sensor_id;sensor_type;location;lat;lon;timestamp;P1;P2;P0
73565;PMS5003;61846;52.970;-3.168;2022-12-18T00:01:44;13;11;
73565;PMS5003;61846;52.970;-3.168;2022-12-18T00:04:13;18;16;
73565;PMS5003;61846;52.970;-3.168;2022-12-18T00:06:35;12;12;
73565;PMS5003;61846;52.970;-3.168;2022-12-18T00:09:01;14;13;
73565;PMS5003;61846;52.970;-3.168;2022-12-18T00:11:27;10;10;
73565;PMS5003;61846;52.970;-3.168;2022-12-18T00:13:52;9;9;
73565;PMS5003;61846;52.970;-3.168;2022-12-18T00:16:18;11;11;
73565;PMS5003;61846;52.970;-3.168;2022-12-18T00:18:43;49;43;
73565;PMS5003;61846;52.970;-3.168;2022-12-18T00:21:09;74;59;
73565;PMS5003;61846;52.970;-3.168;2022-12-18T00:23:34;45;35;
73565;PMS5003;61846;52.970;-3.168;2022-12-18T00:25:59;34;32;
73565;PMS5003;61846;52.970;-3.168;2022-12-18T00:28:25;42;33;
73565;PMS5003;61846;52.970;-3.168;2022-12-18T00:30:50;44;42;
73565;PMS5003;61846;52.970;-3.168;2022-12-18T00:33:16;43;40;
73565;PMS5003;61846;52.970;-3.168;2022-12-18T00:35:41;47;39;
73565;PMS5003;61846;52.970;-3.168;2022-12-18T00:38:06;25;23;
73565;PMS5003;61846;52.970;-3.168;2022-12-18T00:40:32;23;21;
73565;PMS5003;61846;52.970;-3.168;2022-12-18T00:42:58;31;23;
73565;PMS5003;61846;52.970;-3.168;2022-12-18T00:45:24;24;20;
73565;PMS5003;61846;52.970;-3.168;2022-12-18T00:47:48;27;24;
73565;PMS5003;61846;52.970;-3.168;2022-12-18T00:50:14;33;24;
73565;PMS5003;61846;52.970;-3.168;2022-12-18T00:52:39;22;21;
73565;PMS5003;61846;52.970;-3.168;2022-12-18T00:55:05;25;23;
73565;PMS5003;61846;52.970;-3.168;2022-12-18T00:57:31;23;23;
73565;PMS5003;61846;52.970;-3.168;2022-12-18T00:59:57;25;20;
73565;PMS5003;61846;52.970;-3.168;2022-12-18T01:02:22;24;23;
73565;PMS5003;61846;52.970;-3.168;2022-12-18T01:04:47;22;20;
73565;PMS5003;61846;52.970;-3.168;2022-12-18T01:07:12;24;20;
73565;PMS5003;61846;52.970;-3.168;2022-12-18T01:09:38;19;16;
73565;PMS5003;61846;52.970;-3.168;2022-12-18T01:12:04;30;22;
73565;PMS5003;61846;52.970;-3.168;2022-12-18T01:14:29;23;18;
73565;PMS5003;61846;52.970;-3.168;2022-12-18T01:16:55;22;21;
73565;PMS5003;61846;52.970;-3.168;2022-12-18T01:19:19;27;19;
73565;PMS5003;61846;52.970;-3.168;2022-12-18T01:21:45;33;24;
73565;PMS5003;61846;52.970;-3.168;2022-12-18T01:24:10;25;18;
73565;PMS5003;61846;52.970;-3.168;2022-12-18T01:26:36;35;22;
73565;PMS5003;61846;52.970;-3.168;2022-12-18T01:29:01;33;31;
73565;PMS5003;61846;52.970;-3.168;2022-12-18T01:31:28;32;23;
73565;PMS5003;61846;52.970;-3.168;2022-12-18T01:33:52;39;24;
73565;PMS5003;61846;52.970;-3.168;2022-12-18T01:36:18;25;23;
73565;PMS5003;61846;52.970;-3.168;2022-12-18T01:38:43;24;24;
73565;PMS5003;61846;52.970;-3.168;2022-12-18T01:41:09;26;22;
73565;PMS5003;61846;52.970;-3.168;2022-12-18T01:43:41;25;23;
73565;PMS5003;61846;52.970;-3.168;2022-12-18T01:45:59;26;20;
73565;PMS5003;61846;52.970;-3.168;2022-12-18T01:48:24;27;24;
73565;PMS5003;61846;52.970;-3.168;2022-12-18T01:50:50;32;25;
73565;PMS5003;61846;52.970;-3.168;2022-12-18T01:53:15;26;21;
73565;PMS5003;61846;52.970;-3.168;2022-12-18T01:55:42;23;20;
73565;PMS5003;61846;52.970;-3.168;2022-12-18T01:58:06;28;25;
73565;PMS5003;61846;52.970;-3.168;2022-12-18T02:00:32;24;20;
73565;PMS5003;61846;52.970;-3.168;2022-12-18T02:02:57;24;22;
73565;PMS5003;61846;52.970;-3.168;2022-12-18T02:05:25;22;20;
73565;PMS5003;61846;52.970;-3.168;2022-12-18T02:07:52;25;24;
73565;PMS5003;61846;52.970;-3.168;2022-12-18T02:10:15;21;19;
73565;PMS5003;61846;52.970;-3.168;2022-12-18T02:12:42;31;22;
73565;PMS5003;61846;52.970;-3.168;2022-12-18T02:15:05;35;26;
73565;PMS5003;61846;52.970;-3.168;2022-12-18T02:17:31;23;23;
73565;PMS5003;61846;52.970;-3.168;2022-12-18T02:20:01;25;23;
73565;PMS5003;61846;52.970;-3.168;2022-12-18T02:22:25;37;26;
73565;PMS5003;61846;52.970;-3.168;2022-12-18T02:24:49;28;23;
73565;PMS5003;61846;52.970;-3.168;2022-12-18T02:27:12;25;22;
73565;PMS5003;61846;52.970;-3.168;2022-12-18T02:29:38;19;18;
73565;PMS5003;61846;52.970;-3.168;2022-12-18T02:32:04;20;20;
73565;PMS5003;61846;52.970;-3.168;2022-12-18T02:34:30;22;19;
73565;PMS5003;61846;52.970;-3.168;2022-12-18T02:36:53;23;17;
73565;PMS5003;61846;52.970;-3.168;2022-12-18T02:39:19;21;18;
73565;PMS5003;61846;52.970;-3.168;2022-12-18T02:41:44;22;20;
73565;PMS5003;61846;52.970;-3.168;2022-12-18T02:44:11;28;18;
73565;PMS5003;61846;52.970;-3.168;2022-12-18T02:46:36;24;19;
73565;PMS5003;61846;52.970;-3.168;2022-12-18T02:49:03;23;17;
73565;PMS5003;61846;52.970;-3.168;2022-12-18T02:51:27;28;20;
73565;PMS5003;61846;52.970;-3.168;2022-12-18T02:53:53;21;19;
73565;PMS5003;61846;52.970;-3.168;2022-12-18T02:56:18;32;24;
73565;PMS5003;61846;52.970;-3.168;2022-12-18T02:58:44;29;20;
73565;PMS5003;61846;52.970;-3.168;2022-12-18T03:01:09;25;20;
73565;PMS5003;61846;52.970;-3.168;2022-12-18T03:03:34;26;25;
73565;PMS5003;61846;52.970;-3.168;2022-12-18T03:06:00;22;19;
73565;PMS5003;61846;52.970;-3.168;2022-12-18T03:08:26;23;17;
73565;PMS5003;61846;52.970;-3.168;2022-12-18T03:10:51;17;16;
73565;PMS5003;61846;52.970;-3.168;2022-12-18T03:13:16;16;15;
73565;PMS5003;61846;52.970;-3.168;2022-12-18T03:15:41;21;16;
73565;PMS5003;61846;52.970;-3.168;2022-12-18T03:18:07;22;16;
73565;PMS5003;61846;52.970;-3.168;2022-12-18T03:20:32;17;15;
73565;PMS5003;61846;52.970;-3.168;2022-12-18T03:22:57;15;15;
73565;PMS5003;61846;52.970;-3.168;2022-12-18T03:25:22;19;14;
73565;PMS5003;61846;52.970;-3.168;2022-12-18T03:27:48;19;14;
73565;PMS5003;61846;52.970;-3.168;2022-12-18T03:30:13;24;14;
73565;PMS5003;61846;52.970;-3.168;2022-12-18T03:32:39;22;17;
73565;PMS5003;61846;52.970;-3.168;2022-12-18T03:35:04;15;13;
73565;PMS5003;61846;52.970;-3.168;2022-12-18T03:37:28;19;17;
73565;PMS5003;61846;52.970;-3.168;2022-12-18T03:39:54;15;14;
73565;PMS5003;61846;52.970;-3.168;2022-12-18T03:42:21;13;13;
73565;PMS5003;61846;52.970;-3.168;2022-12-18T03:44:46;15;14;
73565;PMS5003;61846;52.970;-3.168;2022-12-18T03:47:12;13;13;
73565;PMS5003;61846;52.970;-3.168;2022-12-18T03:49:37;15;13;
73565;PMS5003;61846;52.970;-3.168;2022-12-18T03:52:02;20;18;
73565;PMS5003;61846;52.970;-3.168;2022-12-18T03:54:26;21;13;
73565;PMS5003;61846;52.970;-3.168;2022-12-18T03:56:54;18;14;
73565;PMS5003;61846;52.970;-3.168;2022-12-18T03:59:18;15;13;
73565;PMS5003;61846;52.970;-3.168;2022-12-18T04:01:45;18;16;
73565;PMS5003;61846;52.970;-3.168;2022-12-18T04:04:09;18;16;
73565;PMS5003;61846;52.970;-3.168;2022-12-18T04:06:35;27;16;
73565;PMS5003;61846;52.970;-3.168;2022-12-18T04:09:01;14;14;
73565;PMS5003;61846;52.970;-3.168;2022-12-18T04:11:26;20;15;
73565;PMS5003;61846;52.970;-3.168;2022-12-18T04:13:55;22;15;
73565;PMS5003;61846;52.970;-3.168;2022-12-18T04:16:17;19;18;
73565;PMS5003;61846;52.970;-3.168;2022-12-18T04:18:43;17;16;
73565;PMS5003;61846;52.970;-3.168;2022-12-18T04:21:09;19;16;
73565;PMS5003;61846;52.970;-3.168;2022-12-18T04:23:34;26;20;
73565;PMS5003;61846;52.970;-3.168;2022-12-18T04:26:00;19;18;
73565;PMS5003;61846;52.970;-3.168;2022-12-18T04:28:25;18;17;
73565;PMS5003;61846;52.970;-3.168;2022-12-18T04:30:51;16;16;
73565;PMS5003;61846;52.970;-3.168;2022-12-18T04:33:16;22;16;
73565;PMS5003;61846;52.970;-3.168;2022-12-18T04:35:41;19;15;
73565;PMS5003;61846;52.970;-3.168;2022-12-18T04:38:08;18;17;
73565;PMS5003;61846;52.970;-3.168;2022-12-18T04:40:33;17;14;
73565;PMS5003;61846;52.970;-3.168;2022-12-18T04:42:58;18;17;
73565;PMS5003;61846;52.970;-3.168;2022-12-18T04:45:23;14;13;
73565;PMS5003;61846;52.970;-3.168;2022-12-18T04:47:49;24;15;
73565;PMS5003;61846;52.970;-3.168;2022-12-18T04:50:14;19;18;
73565;PMS5003;61846;52.970;-3.168;2022-12-18T04:52:39;19;16;
73565;PMS5003;61846;52.970;-3.168;2022-12-18T04:55:05;21;16;
73565;PMS5003;61846;52.970;-3.168;2022-12-18T04:57:29;18;16;
73565;PMS5003;61846;52.970;-3.168;2022-12-18T04:59:55;18;17;
73565;PMS5003;61846;52.970;-3.168;2022-12-18T05:02:20;16;16;
73565;PMS5003;61846;52.970;-3.168;2022-12-18T05:04:46;20;19;
73565;PMS5003;61846;52.970;-3.168;2022-12-18T05:07:11;25;19;
73565;PMS5003;61846;52.970;-3.168;2022-12-18T05:09:37;25;18;
73565;PMS5003;61846;52.970;-3.168;2022-12-18T05:12:02;25;19;
73565;PMS5003;61846;52.970;-3.168;2022-12-18T05:14:28;15;15;
73565;PMS5003;61846;52.970;-3.168;2022-12-18T05:16:54;28;17;
73565;PMS5003;61846;52.970;-3.168;2022-12-18T05:19:19;19;19;
73565;PMS5003;61846;52.970;-3.168;2022-12-18T05:21:44;17;15;
73565;PMS5003;61846;52.970;-3.168;2022-12-18T05:24:09;19;18;
73565;PMS5003;61846;52.970;-3.168;2022-12-18T05:26:35;25;18;
73565;PMS5003;61846;52.970;-3.168;2022-12-18T05:29:00;23;18;
73565;PMS5003;61846;52.970;-3.168;2022-12-18T05:31:26;17;16;
73565;PMS5003;61846;52.970;-3.168;2022-12-18T05:33:51;30;21;
73565;PMS5003;61846;52.970;-3.168;2022-12-18T05:36:16;18;18;
73565;PMS5003;61846;52.970;-3.168;2022-12-18T05:38:42;25;18;
73565;PMS5003;61846;52.970;-3.168;2022-12-18T05:41:08;28;19;
73565;PMS5003;61846;52.970;-3.168;2022-12-18T05:43:34;27;20;
73565;PMS5003;61846;52.970;-3.168;2022-12-18T05:46:02;24;17;
73565;PMS5003;61846;52.970;-3.168;2022-12-18T05:48:24;23;20;
73565;PMS5003;61846;52.970;-3.168;2022-12-18T05:50:49;25;18;
73565;PMS5003;61846;52.970;-3.168;2022-12-18T05:53:15;24;21;
73565;PMS5003;61846;52.970;-3.168;2022-12-18T05:55:40;30;21;
73565;PMS5003;61846;52.970;-3.168;2022-12-18T05:58:06;25;23;
73565;PMS5003;61846;52.970;-3.168;2022-12-18T06:00:31;24;23;
73565;PMS5003;61846;52.970;-3.168;2022-12-18T06:02:56;32;26;
73565;PMS5003;61846;52.970;-3.168;2022-12-18T06:05:22;37;27;
73565;PMS5003;61846;52.970;-3.168;2022-12-18T06:07:47;37;27;
73565;PMS5003;61846;52.970;-3.168;2022-12-18T06:10:12;40;34;
73565;PMS5003;61846;52.970;-3.168;2022-12-18T06:12:38;35;26;
73565;PMS5003;61846;52.970;-3.168;2022-12-18T06:15:04;30;27;
73565;PMS5003;61846;52.970;-3.168;2022-12-18T06:17:29;31;24;
73565;PMS5003;61846;52.970;-3.168;2022-12-18T06:19:55;29;28;
73565;PMS5003;61846;52.970;-3.168;2022-12-18T06:22:20;28;19;
73565;PMS5003;61846;52.970;-3.168;2022-12-18T06:24:45;35;26;
73565;PMS5003;61846;52.970;-3.168;2022-12-18T06:27:11;26;24;
73565;PMS5003;61846;52.970;-3.168;2022-12-18T06:29:36;29;27;
73565;PMS5003;61846;52.970;-3.168;2022-12-18T06:32:02;36;27;
73565;PMS5003;61846;52.970;-3.168;2022-12-18T06:34:27;36;28;
73565;PMS5003;61846;52.970;-3.168;2022-12-18T06:36:53;32;26;
73565;PMS5003;61846;52.970;-3.168;2022-12-18T06:39:18;36;28;
73565;PMS5003;61846;52.970;-3.168;2022-12-18T06:41:43;44;30;
73565;PMS5003;61846;52.970;-3.168;2022-12-18T06:44:09;47;33;
73565;PMS5003;61846;52.970;-3.168;2022-12-18T06:46:34;34;27;
73565;PMS5003;61846;52.970;-3.168;2022-12-18T06:49:00;36;28;
73565;PMS5003;61846;52.970;-3.168;2022-12-18T06:51:25;39;37;
73565;PMS5003;61846;52.970;-3.168;2022-12-18T06:53:51;50;40;
73565;PMS5003;61846;52.970;-3.168;2022-12-18T06:56:16;72;57;
73565;PMS5003;61846;52.970;-3.168;2022-12-18T06:58:41;49;46;
73565;PMS5003;61846;52.970;-3.168;2022-12-18T07:01:08;39;31;
73565;PMS5003;61846;52.970;-3.168;2022-12-18T07:03:32;31;28;
73565;PMS5003;61846;52.970;-3.168;2022-12-18T07:05:58;31;28;
73565;PMS5003;61846;52.970;-3.168;2022-12-18T07:08:23;31;27;
73565;PMS5003;61846;52.970;-3.168;2022-12-18T07:10:49;37;33;
73565;PMS5003;61846;52.970;-3.168;2022-12-18T07:13:14;42;31;
73565;PMS5003;61846;52.970;-3.168;2022-12-18T07:15:39;31;31;
73565;PMS5003;61846;52.970;-3.168;2022-12-18T07:18:04;33;30;
73565;PMS5003;61846;52.970;-3.168;2022-12-18T07:20:29;30;29;
73565;PMS5003;61846;52.970;-3.168;2022-12-18T07:22:55;41;33;
73565;PMS5003;61846;52.970;-3.168;2022-12-18T07:25:21;43;34;
73565;PMS5003;61846;52.970;-3.168;2022-12-18T07:27:45;43;33;
73565;PMS5003;61846;52.970;-3.168;2022-12-18T07:30:11;32;31;
73565;PMS5003;61846;52.970;-3.168;2022-12-18T07:32:36;32;31;
73565;PMS5003;61846;52.970;-3.168;2022-12-18T07:35:02;52;36;
73565;PMS5003;61846;52.970;-3.168;2022-12-18T07:37:28;48;36;
73565;PMS5003;61846;52.970;-3.168;2022-12-18T07:39:53;40;33;
73565;PMS5003;61846;52.970;-3.168;2022-12-18T07:42:19;41;32;
73565;PMS5003;61846;52.970;-3.168;2022-12-18T07:44:44;38;30;
73565;PMS5003;61846;52.970;-3.168;2022-12-18T07:47:10;44;36;
73565;PMS5003;61846;52.970;-3.168;2022-12-18T07:49:36;42;34;
73565;PMS5003;61846;52.970;-3.168;2022-12-18T07:52:01;42;34;
73565;PMS5003;61846;52.970;-3.168;2022-12-18T07:54:26;57;42;
73565;PMS5003;61846;52.970;-3.168;2022-12-18T07:56:51;43;34;
73565;PMS5003;61846;52.970;-3.168;2022-12-18T07:59:17;50;45;
73565;PMS5003;61846;52.970;-3.168;2022-12-18T08:01:42;46;38;
73565;PMS5003;61846;52.970;-3.168;2022-12-18T08:04:08;42;34;
73565;PMS5003;61846;52.970;-3.168;2022-12-18T08:06:34;48;40;
73565;PMS5003;61846;52.970;-3.168;2022-12-18T08:09:00;56;45;
73565;PMS5003;61846;52.970;-3.168;2022-12-18T08:11:26;66;47;
73565;PMS5003;61846;52.970;-3.168;2022-12-18T08:13:50;50;43;
73565;PMS5003;61846;52.970;-3.168;2022-12-18T08:16:16;51;41;
73565;PMS5003;61846;52.970;-3.168;2022-12-18T08:18:42;45;44;
73565;PMS5003;61846;52.970;-3.168;2022-12-18T08:21:08;44;39;
73565;PMS5003;61846;52.970;-3.168;2022-12-18T08:23:33;64;48;
73565;PMS5003;61846;52.970;-3.168;2022-12-18T08:25:58;58;52;
73565;PMS5003;61846;52.970;-3.168;2022-12-18T08:28:24;53;43;
73565;PMS5003;61846;52.970;-3.168;2022-12-18T08:30:51;65;55;
73565;PMS5003;61846;52.970;-3.168;2022-12-18T08:33:15;60;44;
73565;PMS5003;61846;52.970;-3.168;2022-12-18T08:35:40;64;53;
73565;PMS5003;61846;52.970;-3.168;2022-12-18T08:38:05;73;54;
73565;PMS5003;61846;52.970;-3.168;2022-12-18T08:40:30;48;46;
73565;PMS5003;61846;52.970;-3.168;2022-12-18T08:42:56;61;50;
73565;PMS5003;61846;52.970;-3.168;2022-12-18T08:45:21;57;47;
73565;PMS5003;61846;52.970;-3.168;2022-12-18T08:47:46;63;51;
73565;PMS5003;61846;52.970;-3.168;2022-12-18T08:50:12;58;49;
73565;PMS5003;61846;52.970;-3.168;2022-12-18T08:52:38;62;47;
73565;PMS5003;61846;52.970;-3.168;2022-12-18T08:55:03;59;51;
73565;PMS5003;61846;52.970;-3.168;2022-12-18T08:57:28;54;45;
73565;PMS5003;61846;52.970;-3.168;2022-12-18T08:59:53;70;56;
73565;PMS5003;61846;52.970;-3.168;2022-12-18T09:02:18;72;54;
73565;PMS5003;61846;52.970;-3.168;2022-12-18T09:04:46;59;49;
73565;PMS5003;61846;52.970;-3.168;2022-12-18T09:07:10;54;49;
73565;PMS5003;61846;52.970;-3.168;2022-12-18T09:09:35;55;46;
73565;PMS5003;61846;52.970;-3.168;2022-12-18T09:12:00;54;47;
73565;PMS5003;61846;52.970;-3.168;2022-12-18T09:14:25;52;47;
73565;PMS5003;61846;52.970;-3.168;2022-12-18T09:16:51;60;51;
73565;PMS5003;61846;52.970;-3.168;2022-12-18T09:19:16;63;53;
73565;PMS5003;61846;52.970;-3.168;2022-12-18T09:21:42;61;53;
73565;PMS5003;61846;52.970;-3.168;2022-12-18T09:24:08;65;53;
73565;PMS5003;61846;52.970;-3.168;2022-12-18T09:26:32;75;61;
73565;PMS5003;61846;52.970;-3.168;2022-12-18T09:28:58;58;51;
73565;PMS5003;61846;52.970;-3.168;2022-12-18T09:31:23;64;52;
73565;PMS5003;61846;52.970;-3.168;2022-12-18T09:33:48;63;47;
73565;PMS5003;61846;52.970;-3.168;2022-12-18T09:36:15;53;47;
73565;PMS5003;61846;52.970;-3.168;2022-12-18T09:38:40;64;50;
73565;PMS5003;61846;52.970;-3.168;2022-12-18T09:41:05;62;50;
73565;PMS5003;61846;52.970;-3.168;2022-12-18T09:43:33;65;52;
73565;PMS5003;61846;52.970;-3.168;2022-12-18T09:45:58;59;48;
73565;PMS5003;61846;52.970;-3.168;2022-12-18T09:48:23;60;43;
73565;PMS5003;61846;52.970;-3.168;2022-12-18T09:50:48;57;49;
73565;PMS5003;61846;52.970;-3.168;2022-12-18T09:53:15;58;48;
73565;PMS5003;61846;52.970;-3.168;2022-12-18T09:55:40;54;47;
73565;PMS5003;61846;52.970;-3.168;2022-12-18T09:58:05;57;48;
73565;PMS5003;61846;52.970;-3.168;2022-12-18T10:00:30;55;48;
73565;PMS5003;61846;52.970;-3.168;2022-12-18T10:02:56;60;47;
73565;PMS5003;61846;52.970;-3.168;2022-12-18T10:05:31;65;53;
73565;PMS5003;61846;52.970;-3.168;2022-12-18T10:07:49;61;49;
73565;PMS5003;61846;52.970;-3.168;2022-12-18T10:10:14;67;50;
73565;PMS5003;61846;52.970;-3.168;2022-12-18T10:12:38;60;49;
73565;PMS5003;61846;52.970;-3.168;2022-12-18T10:15:04;59;45;
73565;PMS5003;61846;52.970;-3.168;2022-12-18T10:17:31;64;46;
73565;PMS5003;61846;52.970;-3.168;2022-12-18T10:19:55;64;49;
73565;PMS5003;61846;52.970;-3.168;2022-12-18T10:22:23;55;46;
73565;PMS5003;61846;52.970;-3.168;2022-12-18T10:24:47;63;54;
73565;PMS5003;61846;52.970;-3.168;2022-12-18T10:27:12;60;51;
73565;PMS5003;61846;52.970;-3.168;2022-12-18T10:29:36;61;50;
73565;PMS5003;61846;52.970;-3.168;2022-12-18T10:32:01;59;49;
73565;PMS5003;61846;52.970;-3.168;2022-12-18T10:34:27;59;47;
73565;PMS5003;61846;52.970;-3.168;2022-12-18T10:36:52;58;49;
73565;PMS5003;61846;52.970;-3.168;2022-12-18T10:39:18;62;49;
73565;PMS5003;61846;52.970;-3.168;2022-12-18T10:41:43;83;66;
73565;PMS5003;61846;52.970;-3.168;2022-12-18T10:44:11;65;51;
73565;PMS5003;61846;52.970;-3.168;2022-12-18T10:46:34;57;47;
73565;PMS5003;61846;52.970;-3.168;2022-12-18T10:49:00;62;47;
73565;PMS5003;61846;52.970;-3.168;2022-12-18T10:51:25;58;49;
73565;PMS5003;61846;52.970;-3.168;2022-12-18T10:53:51;62;49;
73565;PMS5003;61846;52.970;-3.168;2022-12-18T10:56:18;59;46;
73565;PMS5003;61846;52.970;-3.168;2022-12-18T10:58:41;60;48;
73565;PMS5003;61846;52.970;-3.168;2022-12-18T11:01:07;53;45;
73565;PMS5003;61846;52.970;-3.168;2022-12-18T11:03:32;55;47;
73565;PMS5003;61846;52.970;-3.168;2022-12-18T11:06:01;64;49;
73565;PMS5003;61846;52.970;-3.168;2022-12-18T11:08:22;59;52;
73565;PMS5003;61846;52.970;-3.168;2022-12-18T11:10:49;80;65;
73565;PMS5003;61846;52.970;-3.168;2022-12-18T11:13:17;64;48;
73565;PMS5003;61846;52.970;-3.168;2022-12-18T11:15:40;60;51;
73565;PMS5003;61846;52.970;-3.168;2022-12-18T11:20:31;57;48;
73565;PMS5003;61846;52.970;-3.168;2022-12-18T11:22:57;60;50;
73565;PMS5003;61846;52.970;-3.168;2022-12-18T11:25:22;50;45;
73565;PMS5003;61846;52.970;-3.168;2022-12-18T11:27:48;55;47;
73565;PMS5003;61846;52.970;-3.168;2022-12-18T11:30:20;57;45;
73565;PMS5003;61846;52.970;-3.168;2022-12-18T11:32:38;57;45;
73565;PMS5003;61846;52.970;-3.168;2022-12-18T11:35:09;51;42;
73565;PMS5003;61846;52.970;-3.168;2022-12-18T11:37:29;51;43;
73565;PMS5003;61846;52.970;-3.168;2022-12-18T11:39:56;56;46;
73565;PMS5003;61846;52.970;-3.168;2022-12-18T11:42:22;54;44;
73565;PMS5003;61846;52.970;-3.168;2022-12-18T11:44:46;60;45;
73565;PMS5003;61846;52.970;-3.168;2022-12-18T11:47:13;59;47;
73565;PMS5003;61846;52.970;-3.168;2022-12-18T11:49:36;64;53;
73565;PMS5003;61846;52.970;-3.168;2022-12-18T11:52:04;59;45;
73565;PMS5003;61846;52.970;-3.168;2022-12-18T11:54:27;56;43;
73565;PMS5003;61846;52.970;-3.168;2022-12-18T11:56:54;55;44;
73565;PMS5003;61846;52.970;-3.168;2022-12-18T11:59:20;47;38;
73565;PMS5003;61846;52.970;-3.168;2022-12-18T12:01:46;53;39;
73565;PMS5003;61846;52.970;-3.168;2022-12-18T12:06:36;55;46;
73565;PMS5003;61846;52.970;-3.168;2022-12-18T12:09:02;55;47;
73565;PMS5003;61846;52.970;-3.168;2022-12-18T12:11:27;45;38;
73565;PMS5003;61846;52.970;-3.168;2022-12-18T12:13:54;42;35;
73565;PMS5003;61846;52.970;-3.168;2022-12-18T12:16:17;54;41;
73565;PMS5003;61846;52.970;-3.168;2022-12-18T12:18:46;52;43;
73565;PMS5003;61846;52.970;-3.168;2022-12-18T12:21:09;56;42;
73565;PMS5003;61846;52.970;-3.168;2022-12-18T12:23:35;46;41;
73565;PMS5003;61846;52.970;-3.168;2022-12-18T12:25:59;46;39;
73565;PMS5003;61846;52.970;-3.168;2022-12-18T12:28:28;59;51;
73565;PMS5003;61846;52.970;-3.168;2022-12-18T12:30:52;38;35;
73565;PMS5003;61846;52.970;-3.168;2022-12-18T12:33:18;59;45;
73565;PMS5003;61846;52.970;-3.168;2022-12-18T12:35:44;58;45;
73565;PMS5003;61846;52.970;-3.168;2022-12-18T12:38:08;45;38;
73565;PMS5003;61846;52.970;-3.168;2022-12-18T12:40:33;47;37;
73565;PMS5003;61846;52.970;-3.168;2022-12-18T12:42:58;52;34;
73565;PMS5003;61846;52.970;-3.168;2022-12-18T12:45:26;52;44;
73565;PMS5003;61846;52.970;-3.168;2022-12-18T12:47:48;41;32;
73565;PMS5003;61846;52.970;-3.168;2022-12-18T12:50:14;45;35;
73565;PMS5003;61846;52.970;-3.168;2022-12-18T12:52:39;42;33;
73565;PMS5003;61846;52.970;-3.168;2022-12-18T12:55:05;58;42;
73565;PMS5003;61846;52.970;-3.168;2022-12-18T12:57:30;39;36;
73565;PMS5003;61846;52.970;-3.168;2022-12-18T12:59:57;37;36;
73565;PMS5003;61846;52.970;-3.168;2022-12-18T13:02:22;42;39;
73565;PMS5003;61846;52.970;-3.168;2022-12-18T13:04:47;43;37;
73565;PMS5003;61846;52.970;-3.168;2022-12-18T13:07:12;46;36;
73565;PMS5003;61846;52.970;-3.168;2022-12-18T13:10:12;49;43;
73565;PMS5003;61846;52.970;-3.168;2022-12-18T13:12:02;41;32;
73565;PMS5003;61846;52.970;-3.168;2022-12-18T13:14:28;31;26;
73565;PMS5003;61846;52.970;-3.168;2022-12-18T13:19:23;29;28;
73565;PMS5003;61846;52.970;-3.168;2022-12-18T13:21:43;37;31;
73565;PMS5003;61846;52.970;-3.168;2022-12-18T13:26:33;40;34;
73565;PMS5003;61846;52.970;-3.168;2022-12-18T13:28:59;31;29;
73565;PMS5003;61846;52.970;-3.168;2022-12-18T13:33:50;37;31;
73565;PMS5003;61846;52.970;-3.168;2022-12-18T13:36:17;36;30;
73565;PMS5003;61846;52.970;-3.168;2022-12-18T13:38:42;46;39;
73565;PMS5003;61846;52.970;-3.168;2022-12-18T13:43:41;46;42;
73565;PMS5003;61846;52.970;-3.168;2022-12-18T13:46:00;39;32;
73565;PMS5003;61846;52.970;-3.168;2022-12-18T13:48:23;31;30;
73565;PMS5003;61846;52.970;-3.168;2022-12-18T13:50:49;32;32;
73565;PMS5003;61846;52.970;-3.168;2022-12-18T13:53:15;38;31;
73565;PMS5003;61846;52.970;-3.168;2022-12-18T13:55:42;39;36;
73565;PMS5003;61846;52.970;-3.168;2022-12-18T13:58:05;48;33;
73565;PMS5003;61846;52.970;-3.168;2022-12-18T14:00:30;31;30;
73565;PMS5003;61846;52.970;-3.168;2022-12-18T14:02:57;47;35;
73565;PMS5003;61846;52.970;-3.168;2022-12-18T14:05:22;33;29;
73565;PMS5003;61846;52.970;-3.168;2022-12-18T14:07:47;48;36;
73565;PMS5003;61846;52.970;-3.168;2022-12-18T14:10:12;55;43;
73565;PMS5003;61846;52.970;-3.168;2022-12-18T14:12:38;43;38;
73565;PMS5003;61846;52.970;-3.168;2022-12-18T14:15:03;48;35;
73565;PMS5003;61846;52.970;-3.168;2022-12-18T14:17:28;37;28;
73565;PMS5003;61846;52.970;-3.168;2022-12-18T14:19:53;51;39;
73565;PMS5003;61846;52.970;-3.168;2022-12-18T14:22:19;40;35;
73565;PMS5003;61846;52.970;-3.168;2022-12-18T14:24:44;47;40;
73565;PMS5003;61846;52.970;-3.168;2022-12-18T14:27:19;43;36;
73565;PMS5003;61846;52.970;-3.168;2022-12-18T14:29:35;45;37;
73565;PMS5003;61846;52.970;-3.168;2022-12-18T14:32:04;49;43;
73565;PMS5003;61846;52.970;-3.168;2022-12-18T14:34:26;43;40;
73565;PMS5003;61846;52.970;-3.168;2022-12-18T14:36:52;46;41;
73565;PMS5003;61846;52.970;-3.168;2022-12-18T14:39:16;60;47;
73565;PMS5003;61846;52.970;-3.168;2022-12-18T14:41:42;50;47;
73565;PMS5003;61846;52.970;-3.168;2022-12-18T14:44:07;59;53;
73565;PMS5003;61846;52.970;-3.168;2022-12-18T14:46:33;58;52;
73565;PMS5003;61846;52.970;-3.168;2022-12-18T14:48:58;57;49;
73565;PMS5003;61846;52.970;-3.168;2022-12-18T14:51:24;57;47;
73565;PMS5003;61846;52.970;-3.168;2022-12-18T14:53:52;70;57;
73565;PMS5003;61846;52.970;-3.168;2022-12-18T14:56:16;62;52;
73565;PMS5003;61846;52.970;-3.168;2022-12-18T14:58:45;53;45;
73565;PMS5003;61846;52.970;-3.168;2022-12-18T15:01:06;47;46;
73565;PMS5003;61846;52.970;-3.168;2022-12-18T15:03:31;52;49;
73565;PMS5003;61846;52.970;-3.168;2022-12-18T15:05:58;60;48;
73565;PMS5003;61846;52.970;-3.168;2022-12-18T15:08:28;53;47;
73565;PMS5003;61846;52.970;-3.168;2022-12-18T15:10:47;53;45;
73565;PMS5003;61846;52.970;-3.168;2022-12-18T15:13:19;52;45;
73565;PMS5003;61846;52.970;-3.168;2022-12-18T15:15:43;53;43;
73565;PMS5003;61846;52.970;-3.168;2022-12-18T15:18:04;61;48;
73565;PMS5003;61846;52.970;-3.168;2022-12-18T15:20:29;60;47;
73565;PMS5003;61846;52.970;-3.168;2022-12-18T15:22:55;53;43;
73565;PMS5003;61846;52.970;-3.168;2022-12-18T15:25:23;61;49;
73565;PMS5003;61846;52.970;-3.168;2022-12-18T15:27:46;47;39;
73565;PMS5003;61846;52.970;-3.168;2022-12-18T15:30:17;52;46;
73565;PMS5003;61846;52.970;-3.168;2022-12-18T15:32:36;57;48;
73565;PMS5003;61846;52.970;-3.168;2022-12-18T15:35:03;46;40;
73565;PMS5003;61846;52.970;-3.168;2022-12-18T15:37:26;60;48;
73565;PMS5003;61846;52.970;-3.168;2022-12-18T15:39:52;64;52;
73565;PMS5003;61846;52.970;-3.168;2022-12-18T15:42:18;52;44;
73565;PMS5003;61846;52.970;-3.168;2022-12-18T15:44:43;52;39;
73565;PMS5003;61846;52.970;-3.168;2022-12-18T15:47:10;56;46;
73565;PMS5003;61846;52.970;-3.168;2022-12-18T15:49:34;44;35;
73565;PMS5003;61846;52.970;-3.168;2022-12-18T15:51:59;41;36;
73565;PMS5003;61846;52.970;-3.168;2022-12-18T15:54:25;54;43;
73565;PMS5003;61846;52.970;-3.168;2022-12-18T15:56:50;47;41;
73565;PMS5003;61846;52.970;-3.168;2022-12-18T15:59:17;49;41;
73565;PMS5003;61846;52.970;-3.168;2022-12-18T16:01:41;49;40;
73565;PMS5003;61846;52.970;-3.168;2022-12-18T16:04:08;45;36;